createdAt,value
2022-08-04T00:01:47.196Z,15.70
2022-08-04T00:04:22.263Z,17.30
2022-08-04T00:06:55.991Z,16.05
2022-08-04T00:09:31.399Z,15.38
2022-08-04T00:11:59.177Z,15.15
2022-08-04T00:14:27.165Z,16.05
2022-08-04T00:16:55.109Z,17.42
2022-08-04T00:19:27.135Z,16.15
2022-08-04T00:22:00.749Z,16.55
2022-08-04T00:24:30.479Z,15.77
2022-08-04T00:26:58.373Z,16.48
2022-08-04T00:29:26.278Z,16.17
2022-08-04T00:31:57.346Z,16.58
2022-08-04T00:34:27.601Z,15.63
2022-08-04T00:36:55.804Z,16.05
2022-08-04T00:39:23.558Z,16.02
2022-08-04T00:41:56.676Z,15.73
2022-08-04T00:44:35.695Z,16.92
2022-08-04T00:47:22.421Z,16.70
2022-08-04T00:50:05.204Z,16.17
2022-08-04T00:52:33.858Z,15.73
2022-08-04T00:55:20.486Z,17.35
2022-08-04T00:57:48.171Z,17.27
2022-08-04T01:00:16.506Z,17.33
2022-08-04T01:03:02.832Z,17.15
2022-08-04T01:05:38.070Z,17.30
2022-08-04T01:08:18.155Z,17.65
2022-08-04T01:11:05.579Z,17.33
2022-08-04T01:13:52.070Z,17.05
2022-08-04T01:16:21.191Z,18.50
2022-08-04T01:19:06.086Z,16.95
2022-08-04T01:21:58.691Z,18.25
2022-08-04T01:24:35.245Z,18.40
2022-08-04T01:27:06.115Z,18.35
2022-08-04T01:29:46.853Z,17.05
2022-08-04T01:32:19.284Z,18.50
2022-08-04T01:34:52.031Z,18.35
2022-08-04T01:37:29.214Z,19.48
2022-08-04T01:40:01.279Z,16.92
2022-08-04T01:42:32.020Z,18.13
2022-08-04T01:45:04.772Z,18.17
2022-08-04T01:47:34.744Z,18.45
2022-08-04T01:50:09.624Z,18.05
2022-08-04T01:52:38.490Z,17.42
2022-08-04T01:55:07.110Z,16.65
2022-08-04T01:57:38.153Z,18.95
2022-08-04T02:00:07.331Z,17.30
2022-08-04T02:02:35.078Z,19.08
2022-08-04T02:05:02.780Z,18.85
2022-08-04T02:07:41.579Z,17.73
2022-08-04T02:10:32.468Z,17.48
2022-08-04T02:13:18.153Z,17.60
2022-08-04T02:16:04.176Z,17.38
2022-08-04T02:18:33.132Z,16.35
2022-08-04T02:21:03.841Z,18.88
2022-08-04T02:23:38.763Z,17.37
2022-08-04T02:26:19.216Z,17.45
2022-08-04T02:29:14.066Z,16.95
2022-08-04T02:31:41.758Z,17.13
2022-08-04T02:34:09.412Z,18.27
2022-08-04T02:36:38.475Z,19.17
2022-08-04T02:39:07.757Z,17.15
2022-08-04T02:41:35.810Z,17.50
2022-08-04T02:44:04.988Z,17.73
2022-08-04T02:46:33.861Z,18.08
2022-08-04T02:49:05.663Z,17.73
2022-08-04T02:51:35.999Z,18.10
2022-08-04T02:54:05.607Z,16.80
2022-08-04T02:56:34.107Z,17.58
2022-08-04T02:59:04.497Z,16.55
2022-08-04T03:01:33.167Z,16.52
2022-08-04T03:04:00.825Z,17.88
2022-08-04T03:06:47.176Z,17.50
2022-08-04T03:09:38.661Z,18.02
2022-08-04T03:12:24.548Z,15.88
2022-08-04T03:14:58.221Z,16.95
2022-08-04T03:17:37.764Z,15.88
2022-08-04T03:20:29.896Z,16.95
2022-08-04T03:23:12.662Z,17.23
2022-08-04T03:25:54.582Z,17.80
2022-08-04T03:28:34.079Z,17.08
2022-08-04T03:31:20.341Z,16.25
2022-08-04T03:33:50.843Z,15.93
2022-08-04T03:36:36.594Z,16.00
2022-08-04T03:39:23.088Z,17.50
2022-08-04T03:42:12.131Z,16.35
2022-08-04T03:44:48.961Z,16.75
2022-08-04T03:47:35.332Z,16.27
2022-08-04T03:50:29.069Z,15.18
2022-08-04T03:53:15.758Z,15.85
2022-08-04T03:56:13.539Z,18.55
2022-08-04T03:58:44.389Z,15.63
2022-08-04T04:01:21.325Z,14.82
2022-08-04T04:04:12.686Z,15.43
2022-08-04T04:06:58.970Z,14.77
2022-08-04T04:09:56.906Z,14.23
2022-08-04T04:12:35.613Z,14.52
2022-08-04T04:15:21.948Z,15.63
2022-08-04T04:18:10.228Z,14.80
2022-08-04T04:20:43.712Z,14.43
2022-08-04T04:23:21.345Z,14.15
2022-08-04T04:25:59.118Z,14.13
2022-08-04T04:28:46.553Z,13.38
2022-08-04T04:31:33.614Z,13.45
2022-08-04T04:34:11.422Z,13.15
2022-08-04T04:36:46.427Z,14.80
2022-08-04T04:39:17.495Z,16.08
2022-08-04T04:42:02.173Z,12.85
2022-08-04T04:44:35.868Z,12.85
2022-08-04T04:47:09.722Z,12.52
2022-08-04T04:49:52.108Z,12.52
2022-08-04T04:52:27.521Z,13.40
2022-08-04T04:55:05.314Z,11.32
2022-08-04T04:57:53.268Z,11.32
2022-08-04T05:00:22.168Z,11.70
2022-08-04T05:03:06.005Z,11.30
2022-08-04T05:05:39.567Z,8.35
2022-08-04T05:08:41.372Z,8.07
2022-08-04T05:11:01.408Z,7.63
2022-08-04T05:14:37.802Z,7.20
2022-08-04T05:16:39.685Z,7.65
2022-08-04T05:19:10.235Z,6.68
2022-08-04T05:21:40.500Z,6.78
2022-08-04T05:24:11.607Z,6.78
2022-08-04T05:26:45.235Z,6.00
2022-08-04T05:29:17.459Z,5.50
2022-08-04T05:31:50.444Z,5.18
2022-08-04T05:34:23.067Z,5.57
2022-08-04T05:36:52.664Z,5.13
2022-08-04T05:39:25.785Z,5.30
2022-08-04T05:41:55.635Z,4.63
2022-08-04T05:44:27.070Z,4.57
2022-08-04T05:46:58.683Z,4.30
2022-08-04T05:49:29.848Z,3.90
2022-08-04T05:52:00.386Z,3.72
2022-08-04T05:54:29.339Z,3.95
2022-08-04T05:56:57.915Z,4.30
2022-08-04T05:59:26.527Z,4.78
2022-08-04T06:01:57.129Z,4.88
2022-08-04T06:04:27.357Z,4.38
2022-08-04T06:06:55.214Z,4.30
2022-08-04T06:09:22.978Z,4.57
2022-08-04T06:12:02.046Z,4.45
2022-08-04T06:14:43.055Z,3.95
2022-08-04T06:18:33.289Z,3.90
2022-08-04T06:20:18.851Z,5.22
2022-08-04T06:22:57.134Z,5.00
2022-08-04T06:25:29.061Z,4.90
2022-08-04T06:27:57.672Z,5.18
2022-08-04T06:30:27.200Z,4.55
2022-08-04T06:33:03.326Z,4.22
2022-08-04T06:35:33.500Z,4.30
2022-08-04T06:38:02.897Z,4.75
2022-08-04T06:40:33.750Z,4.53
2022-08-04T06:43:03.616Z,4.25
2022-08-04T06:45:34.259Z,4.30
2022-08-04T06:48:02.496Z,4.28
2022-08-04T06:51:31.258Z,4.47
2022-08-04T06:53:19.081Z,4.07
2022-08-04T06:55:47.716Z,4.30
2022-08-04T06:58:16.039Z,4.20
2022-08-04T07:00:45.265Z,4.10
2022-08-04T07:03:13.368Z,4.15
2022-08-04T07:05:41.554Z,4.10
2022-08-04T07:08:11.953Z,4.20
2022-08-04T07:10:39.994Z,4.10
2022-08-04T07:13:09.491Z,4.03
2022-08-04T07:15:39.747Z,4.05
2022-08-04T07:18:07.940Z,4.32
2022-08-04T07:20:36.968Z,3.70
2022-08-04T07:23:05.325Z,3.67
2022-08-04T07:26:11.013Z,4.18
2022-08-04T07:28:23.401Z,4.10
2022-08-04T07:30:51.347Z,4.05
2022-08-04T07:33:19.052Z,4.03
2022-08-04T07:36:04.858Z,4.50
2022-08-04T07:43:54.951Z,4.55
2022-08-04T07:46:22.639Z,6.35
2022-08-04T07:48:50.449Z,4.70
2022-08-04T07:51:18.315Z,4.22
2022-08-04T07:53:53.315Z,3.60
2022-08-04T07:56:24.286Z,3.58
2022-08-04T07:58:51.928Z,3.03
2022-08-04T08:01:20.269Z,3.22
2022-08-04T08:03:48.610Z,3.20
2022-08-04T08:06:30.558Z,2.70
2022-08-04T08:09:12.586Z,3.30
2022-08-04T08:12:37.959Z,3.08
2022-08-04T08:14:31.458Z,2.85
2022-08-04T08:17:00.225Z,3.13
2022-08-04T08:19:28.001Z,3.17
2022-08-04T08:21:59.509Z,2.90
2022-08-04T08:24:29.400Z,2.80
2022-08-04T08:26:57.416Z,2.80
2022-08-04T08:29:26.447Z,2.70
2022-08-04T08:31:55.940Z,2.70
2022-08-04T08:34:28.070Z,2.80
2022-08-04T08:37:02.906Z,2.55
2022-08-04T08:39:50.387Z,2.33
2022-08-04T08:42:30.276Z,2.50
2022-08-04T08:45:17.703Z,3.05
2022-08-04T08:48:06.046Z,3.08
2022-08-04T08:50:54.184Z,2.60
2022-08-04T08:53:40.922Z,2.55
2022-08-04T08:56:12.796Z,2.70
2022-08-04T08:58:50.292Z,2.50
2022-08-04T09:01:27.312Z,2.92
2022-08-04T09:04:10.791Z,2.63
2022-08-04T09:06:57.735Z,2.42
2022-08-04T09:09:25.383Z,2.30
2022-08-04T09:11:59.519Z,2.50
2022-08-04T09:14:34.011Z,2.38
2022-08-04T09:17:04.682Z,2.35
2022-08-04T09:19:40.331Z,2.35
2022-08-04T09:22:16.986Z,2.20
2022-08-04T09:25:04.792Z,2.42
2022-08-04T09:27:47.584Z,2.17
2022-08-04T09:30:19.058Z,2.30
2022-08-04T09:32:53.618Z,2.05
2022-08-04T09:35:33.416Z,2.22
2022-08-04T09:38:01.310Z,2.47
2022-08-04T09:40:53.828Z,14.15
2022-08-04T09:43:59.423Z,11.05
2022-08-04T09:46:35.815Z,21.95
2022-08-04T09:49:08.443Z,90.05
2022-08-04T09:51:58.295Z,10.52
2022-08-04T09:54:45.914Z,4.80
2022-08-04T09:57:19.595Z,11.40
2022-08-04T09:59:47.405Z,4.53
2022-08-04T10:02:16.417Z,2.50
2022-08-04T10:04:44.698Z,3.10
2022-08-04T10:07:31.228Z,2.45
2022-08-04T10:10:04.343Z,2.60
2022-08-04T10:12:32.188Z,2.40
2022-08-04T10:15:17.886Z,2.97
2022-08-04T10:17:52.710Z,2.60
2022-08-04T10:20:45.168Z,2.42
2022-08-04T10:23:17.048Z,2.50
2022-08-04T10:26:08.056Z,2.50
2022-08-04T10:28:48.629Z,2.42
2022-08-04T10:31:21.471Z,3.00
2022-08-04T10:33:55.329Z,2.63
2022-08-04T10:36:24.594Z,2.88
2022-08-04T10:38:58.201Z,2.75
2022-08-04T10:41:34.056Z,2.83
2022-08-04T10:44:16.691Z,3.03
2022-08-04T10:47:04.732Z,3.10
2022-08-04T10:49:41.156Z,2.70
2022-08-04T10:52:25.690Z,3.00
2022-08-04T10:55:11.708Z,2.70
2022-08-04T10:57:42.688Z,2.83
2022-08-04T11:00:12.931Z,2.95
2022-08-04T11:02:40.614Z,2.95
2022-08-04T11:05:08.263Z,3.83
2022-08-04T11:07:38.530Z,3.80
2022-08-04T11:10:07.671Z,3.28
2022-08-04T11:12:36.510Z,3.28
2022-08-04T11:15:13.510Z,3.20
2022-08-04T11:17:47.817Z,3.58
2022-08-04T11:20:37.086Z,3.40
2022-08-04T11:23:07.419Z,3.50
2022-08-04T11:25:48.499Z,3.30
2022-08-04T11:28:19.014Z,3.30
2022-08-04T11:31:03.633Z,3.00
2022-08-04T11:33:52.618Z,3.38
2022-08-04T11:36:20.672Z,3.10
2022-08-04T11:38:57.617Z,3.60
2022-08-04T11:41:39.793Z,3.38
2022-08-04T11:44:12.533Z,3.88
2022-08-04T11:46:52.227Z,3.80
2022-08-04T11:49:57.136Z,3.92
2022-08-04T11:52:27.006Z,3.45
2022-08-04T11:54:55.126Z,3.47
2022-08-04T11:57:35.265Z,3.60
2022-08-04T12:00:06.362Z,3.47
2022-08-04T12:02:49.602Z,3.50
2022-08-04T12:05:35.561Z,3.60
2022-08-04T12:08:10.913Z,3.90
2022-08-04T12:10:57.512Z,3.95
2022-08-04T12:13:32.351Z,3.47
2022-08-04T12:16:15.955Z,3.53
2022-08-04T12:18:52.630Z,3.72
2022-08-04T12:21:26.642Z,3.80
2022-08-04T12:24:00.719Z,3.30
2022-08-04T12:26:29.697Z,3.78
2022-08-04T12:29:10.554Z,3.88
2022-08-04T12:31:45.733Z,3.65
2022-08-04T12:34:32.467Z,3.70
2022-08-04T12:37:07.602Z,3.30
2022-08-04T12:39:36.219Z,3.30
2022-08-04T12:42:28.548Z,3.60
2022-08-04T12:44:56.847Z,3.40
2022-08-04T12:47:28.913Z,3.50
2022-08-04T12:50:03.841Z,3.60
2022-08-04T12:52:59.187Z,3.80
2022-08-04T12:55:23.146Z,3.67
2022-08-04T12:57:51.587Z,3.75
2022-08-04T13:00:30.478Z,3.40
2022-08-04T13:03:05.827Z,3.75
2022-08-04T13:05:39.687Z,3.50
2022-08-04T13:08:08.116Z,3.60
2022-08-04T13:10:38.861Z,3.53
2022-08-04T13:13:06.760Z,3.28
2022-08-04T13:15:47.401Z,3.67
2022-08-04T13:18:27.386Z,3.70
2022-08-04T13:20:58.217Z,4.05
2022-08-04T13:23:26.915Z,3.67
2022-08-04T13:26:44.450Z,4.25
2022-08-04T13:28:45.828Z,3.73
2022-08-04T13:31:22.519Z,3.50
2022-08-04T13:33:52.333Z,3.85
2022-08-04T13:36:20.554Z,2.92
2022-08-04T13:38:55.974Z,4.18
2022-08-04T13:41:27.731Z,3.97
2022-08-04T13:44:19.583Z,3.63
2022-08-04T13:46:58.920Z,3.60
2022-08-04T13:49:38.049Z,3.95
2022-08-04T13:52:14.677Z,3.58
2022-08-04T13:54:43.931Z,3.58
2022-08-04T13:57:19.549Z,3.60
2022-08-04T13:59:52.443Z,3.50
2022-08-04T14:02:35.295Z,3.30
2022-08-04T14:05:18.373Z,3.95
2022-08-04T14:07:48.167Z,3.65
2022-08-04T14:10:15.950Z,3.30
2022-08-04T14:12:50.354Z,3.70
2022-08-04T14:16:02.828Z,3.90
2022-08-04T14:18:32.704Z,4.10
2022-08-04T14:21:02.020Z,3.47
2022-08-04T14:23:33.264Z,3.55
2022-08-04T14:26:01.235Z,4.53
2022-08-04T14:29:08.436Z,3.90
2022-08-04T14:31:19.132Z,3.35
2022-08-04T14:34:02.569Z,3.22
2022-08-04T14:37:09.053Z,4.10
2022-08-04T14:40:08.340Z,3.40
2022-08-04T14:42:54.359Z,3.38
2022-08-04T14:45:34.365Z,3.03
2022-08-04T14:48:03.172Z,3.40
2022-08-04T14:50:49.375Z,3.10
2022-08-04T14:53:29.517Z,3.30
2022-08-04T14:55:58.890Z,3.25
2022-08-04T14:58:34.130Z,3.17
2022-08-04T15:01:11.738Z,2.90
2022-08-04T15:03:50.379Z,4.35
2022-08-04T15:06:27.281Z,3.88
2022-08-04T15:08:56.834Z,3.25
2022-08-04T15:11:24.920Z,3.30
2022-08-04T15:13:53.503Z,3.78
2022-08-04T15:16:21.660Z,3.78
2022-08-04T15:18:49.904Z,3.50
2022-08-04T15:21:17.845Z,3.90
2022-08-04T15:23:45.413Z,3.95
2022-08-04T15:26:14.691Z,3.17
2022-08-04T15:28:45.593Z,3.30
2022-08-04T15:32:06.780Z,3.63
2022-08-04T15:34:02.041Z,3.47
2022-08-04T15:36:37.998Z,3.47
2022-08-04T15:39:14.748Z,3.75
2022-08-04T15:41:54.976Z,3.13
2022-08-04T15:44:41.904Z,3.50
2022-08-04T15:47:16.289Z,3.60
2022-08-04T15:49:44.953Z,3.65
2022-08-04T15:52:15.851Z,3.50
2022-08-04T15:54:52.747Z,7.10
2022-08-04T15:57:40.759Z,27.98
2022-08-04T16:00:14.284Z,4.30
2022-08-04T16:02:43.923Z,5.10
2022-08-04T16:05:18.578Z,6.00
2022-08-04T16:08:05.151Z,6.30
2022-08-04T16:10:32.783Z,4.80
2022-08-04T16:13:20.280Z,5.47
2022-08-04T16:15:49.664Z,4.40
2022-08-04T16:18:26.410Z,4.30
2022-08-04T16:20:58.637Z,4.78
2022-08-04T16:23:54.194Z,8.40
2022-08-04T16:26:54.575Z,6.60
2022-08-04T16:29:24.103Z,4.32
2022-08-04T16:32:12.550Z,6.28
2022-08-04T16:35:07.017Z,4.63
2022-08-04T16:37:38.641Z,3.83
2022-08-04T16:40:29.804Z,6.22
2022-08-04T16:43:08.664Z,4.15
2022-08-04T16:45:46.953Z,3.55
2022-08-04T16:48:15.638Z,3.63
2022-08-04T16:50:48.580Z,4.53
2022-08-04T16:54:02.676Z,4.45
2022-08-04T16:56:06.707Z,5.72
2022-08-04T16:58:36.877Z,4.00
2022-08-04T17:01:09.692Z,4.03
2022-08-04T17:03:42.609Z,3.95
2022-08-04T17:06:12.387Z,4.57
2022-08-04T17:08:40.583Z,4.22
2022-08-04T17:11:10.086Z,4.95
2022-08-04T17:14:04.627Z,4.95
2022-08-04T17:16:29.386Z,3.70
2022-08-04T17:18:57.813Z,4.00
2022-08-04T17:21:27.079Z,3.97
2022-08-04T17:24:13.339Z,4.60
2022-08-04T17:26:53.974Z,6.15
2022-08-04T17:29:42.830Z,4.65
2022-08-04T17:32:14.260Z,5.07
2022-08-04T17:34:42.187Z,5.10
2022-08-04T17:37:40.896Z,9.03
2022-08-04T17:40:22.669Z,7.35
2022-08-04T17:44:05.241Z,4.82
2022-08-04T17:46:13.161Z,5.32
2022-08-04T17:48:42.652Z,6.40
2022-08-04T17:51:17.138Z,4.93
2022-08-04T17:54:02.471Z,5.53
2022-08-04T17:56:34.468Z,5.70
2022-08-04T18:01:40.451Z,5.97
2022-08-04T18:04:26.312Z,6.95
2022-08-04T18:06:56.432Z,6.88
2022-08-04T18:10:02.113Z,5.78
2022-08-04T18:12:32.045Z,5.65
2022-08-04T18:15:01.320Z,5.28
2022-08-04T18:18:21.992Z,6.68
2022-08-04T18:20:25.658Z,6.50
2022-08-04T18:22:53.968Z,5.93
2022-08-04T18:25:22.041Z,6.35
2022-08-04T18:28:14.983Z,6.90
2022-08-04T18:30:55.457Z,9.20
2022-08-04T18:33:40.807Z,8.23
2022-08-04T18:36:33.075Z,7.15
2022-08-04T18:39:12.575Z,5.72
2022-08-04T18:42:01.601Z,4.65
2022-08-04T18:44:32.826Z,7.85
2022-08-04T18:47:29.683Z,7.18
2022-08-04T18:50:58.600Z,7.57
2022-08-04T18:52:46.080Z,8.93
2022-08-04T18:55:56.032Z,10.07
2022-08-04T18:58:06.269Z,8.80
2022-08-04T19:00:36.294Z,8.45
2022-08-04T19:03:05.146Z,9.20
2022-08-04T19:05:38.656Z,8.68
2022-08-04T19:08:32.620Z,7.55
2022-08-04T19:10:59.993Z,7.88
2022-08-04T19:13:29.696Z,12.25
2022-08-04T19:16:03.055Z,13.63
2022-08-04T19:18:32.336Z,9.95
2022-08-04T19:21:05.099Z,8.77
2022-08-04T19:24:30.648Z,8.90
2022-08-04T19:26:28.167Z,7.95
2022-08-04T19:28:56.499Z,9.45
2022-08-04T19:31:34.135Z,11.65
2022-08-04T19:34:05.005Z,11.50
2022-08-04T19:36:36.728Z,11.77
2022-08-04T19:39:11.518Z,12.45
2022-08-04T19:42:05.742Z,11.10
2022-08-04T19:48:22.046Z,12.55
2022-08-04T19:50:10.382Z,12.98
2022-08-04T19:52:38.776Z,12.57
2022-08-04T19:55:10.679Z,12.07
2022-08-04T19:57:49.342Z,11.68
2022-08-04T20:00:26.148Z,8.95
2022-08-04T20:03:01.181Z,10.25
2022-08-04T20:08:16.542Z,9.20
2022-08-04T20:10:51.149Z,9.23
2022-08-04T20:13:20.889Z,9.50
2022-08-04T20:15:55.576Z,9.35
2022-08-04T20:18:36.604Z,8.30
2022-08-04T20:21:18.899Z,8.38
2022-08-04T20:23:50.013Z,9.43
2022-08-04T20:26:18.109Z,9.40
2022-08-04T20:28:46.231Z,10.00
2022-08-04T20:31:20.246Z,9.88
2022-08-04T20:33:54.926Z,9.77
2022-08-04T20:36:23.253Z,10.18
2022-08-04T20:38:52.730Z,10.82
2022-08-04T20:41:23.772Z,10.15
2022-08-04T20:43:51.510Z,10.27
2022-08-04T20:46:28.982Z,8.75
2022-08-04T20:48:57.945Z,8.93
2022-08-04T20:51:33.491Z,10.02
2022-08-04T20:54:16.822Z,9.00
2022-08-04T20:56:56.570Z,9.77
2022-08-04T21:02:16.276Z,10.60
2022-08-04T21:04:48.558Z,15.07
2022-08-04T21:07:17.054Z,13.65
2022-08-04T21:09:50.053Z,12.90
2022-08-04T21:12:28.414Z,14.02
2022-08-04T21:15:01.640Z,12.43
2022-08-04T21:17:58.561Z,17.02
2022-08-04T21:20:29.267Z,15.05
2022-08-04T21:23:01.786Z,16.13
2022-08-04T21:25:31.502Z,15.65
2022-08-04T21:28:04.287Z,13.35
2022-08-04T21:30:32.939Z,11.98
2022-08-04T21:33:20.326Z,11.40
2022-08-04T21:35:53.984Z,10.43
2022-08-04T21:38:28.314Z,11.02
2022-08-04T21:40:57.568Z,11.80
2022-08-04T21:43:27.186Z,9.85
2022-08-04T21:45:55.886Z,9.60
2022-08-04T21:48:27.604Z,8.93
2022-08-04T21:53:22.907Z,9.20
2022-08-04T21:56:05.765Z,9.13
2022-08-04T21:58:36.136Z,8.73
2022-08-04T22:01:05.926Z,9.45
2022-08-04T22:03:53.243Z,10.32
2022-08-04T22:06:28.243Z,10.38
2022-08-04T22:08:57.112Z,10.55
2022-08-04T22:11:26.240Z,13.02
2022-08-04T22:14:11.977Z,13.30
2022-08-04T22:16:40.111Z,12.77
2022-08-04T22:19:08.922Z,11.70
2022-08-04T22:21:39.308Z,12.70
2022-08-04T22:24:13.862Z,13.43
2022-08-04T22:26:42.324Z,11.50
2022-08-04T22:29:14.163Z,12.50
2022-08-04T22:31:53.229Z,10.52
2022-08-04T22:34:25.130Z,11.05
2022-08-04T22:36:53.709Z,10.57
2022-08-04T22:39:23.281Z,9.90
2022-08-04T22:42:03.581Z,10.13
2022-08-04T22:44:33.715Z,9.90
2022-08-04T22:47:23.620Z,10.48
2022-08-04T22:52:55.116Z,8.98
2022-08-04T22:55:24.149Z,10.65
2022-08-04T22:58:04.737Z,10.68
2022-08-04T23:00:33.108Z,10.50
2022-08-04T23:03:00.775Z,10.68
2022-08-04T23:05:29.202Z,11.25
2022-08-04T23:08:04.159Z,10.10
2022-08-04T23:10:33.113Z,10.30
2022-08-04T23:13:04.074Z,10.27
2022-08-04T23:18:01.338Z,9.48
2022-08-04T23:20:32.740Z,9.60
2022-08-04T23:23:14.800Z,9.45
2022-08-04T23:26:07.992Z,9.77
2022-08-04T23:28:34.970Z,9.52
2022-08-04T23:31:03.763Z,10.18
2022-08-04T23:33:49.305Z,10.18
2022-08-04T23:36:18.902Z,10.32
2022-08-04T23:38:59.254Z,9.88
2022-08-04T23:41:54.616Z,10.18
2022-08-04T23:44:17.655Z,9.45
2022-08-04T23:47:00.799Z,10.30
2022-08-04T23:49:43.606Z,9.50
2022-08-04T23:52:28.295Z,11.63
2022-08-04T23:54:58.834Z,11.60
2022-08-04T23:57:31.001Z,11.60
